createdAt,value
2023-09-18T00:00:53.008Z,10.91
2023-09-18T00:03:21.866Z,10.96
2023-09-18T00:05:49.377Z,10.99
2023-09-18T00:08:17.679Z,11.01
2023-09-18T00:10:50.402Z,11.09
2023-09-18T00:13:17.971Z,11.11
2023-09-18T00:15:49.953Z,11.16
2023-09-18T00:18:17.598Z,11.18
2023-09-18T00:20:46.855Z,11.22
2023-09-18T00:23:14.339Z,11.26
2023-09-18T00:25:44.336Z,11.29
2023-09-18T00:28:12.672Z,11.30
2023-09-18T00:30:49.140Z,11.36
2023-09-18T00:33:17.412Z,11.37
2023-09-18T00:35:52.211Z,11.38
2023-09-18T00:38:20.793Z,11.39
2023-09-18T00:40:49.373Z,11.39
2023-09-18T00:43:16.642Z,11.45
2023-09-18T00:45:46.533Z,11.51
2023-09-18T00:48:15.889Z,11.56
2023-09-18T00:50:45.335Z,11.61
2023-09-18T00:53:16.008Z,11.67
2023-09-18T00:55:43.325Z,11.71
2023-09-18T00:58:11.413Z,11.75
2023-09-18T01:00:40.004Z,11.79
2023-09-18T01:03:07.742Z,11.82
2023-09-18T01:05:35.526Z,11.86
2023-09-18T01:08:03.142Z,11.89
2023-09-18T01:10:37.666Z,11.90
2023-09-18T01:13:17.327Z,11.96
2023-09-18T01:15:58.395Z,11.97
2023-09-18T01:18:25.959Z,11.99
2023-09-18T01:20:53.177Z,11.98
2023-09-18T01:23:20.410Z,11.98
2023-09-18T01:25:48.133Z,11.97
2023-09-18T01:28:17.427Z,11.95
2023-09-18T01:30:45.953Z,11.92
2023-09-18T01:33:15.185Z,11.87
2023-09-18T01:35:43.645Z,11.85
2023-09-18T01:38:12.489Z,11.84
2023-09-18T01:40:40.727Z,11.84
2023-09-18T01:43:08.223Z,11.81
2023-09-18T01:45:35.921Z,11.78
2023-09-18T01:48:07.174Z,11.77
2023-09-18T01:50:34.357Z,11.74
2023-09-18T01:53:01.649Z,11.73
2023-09-18T01:55:30.095Z,11.71
2023-09-18T01:57:57.782Z,11.70
2023-09-18T02:00:25.202Z,11.70
2023-09-18T02:03:15.638Z,11.69
2023-09-18T02:05:43.079Z,11.69
2023-09-18T02:08:10.484Z,11.68
2023-09-18T02:10:37.612Z,11.67
2023-09-18T02:13:05.374Z,11.68
2023-09-18T02:15:33.772Z,11.68
2023-09-18T02:18:01.390Z,11.67
2023-09-18T02:20:28.909Z,11.69
2023-09-18T02:22:56.925Z,11.70
2023-09-18T02:25:44.027Z,11.71
2023-09-18T02:28:11.401Z,11.69
2023-09-18T02:30:38.655Z,11.69
2023-09-18T02:33:06.184Z,11.66
2023-09-18T02:35:36.118Z,11.64
2023-09-18T02:38:04.074Z,11.61
2023-09-18T02:40:32.035Z,11.55
2023-09-18T02:42:59.581Z,11.51
2023-09-18T02:45:26.748Z,11.48
2023-09-18T02:47:53.848Z,11.47
2023-09-18T02:50:21.197Z,11.48
2023-09-18T02:52:48.434Z,11.48
2023-09-18T02:55:16.003Z,11.48
2023-09-18T02:57:43.744Z,11.49
2023-09-18T03:00:11.532Z,11.49
2023-09-18T03:02:38.916Z,11.48
2023-09-18T03:05:06.436Z,11.50
2023-09-18T03:07:33.606Z,11.49
2023-09-18T03:10:00.823Z,11.49
2023-09-18T03:12:29.454Z,11.47
2023-09-18T03:14:56.530Z,11.48
2023-09-18T03:17:23.878Z,11.49
2023-09-18T03:19:51.211Z,11.52
2023-09-18T03:22:18.445Z,11.54
2023-09-18T03:24:45.953Z,11.53
2023-09-18T03:27:13.181Z,11.59
2023-09-18T03:29:40.766Z,11.61
2023-09-18T03:32:08.312Z,11.66
2023-09-18T03:34:36.093Z,11.70
2023-09-18T03:37:03.226Z,11.72
2023-09-18T03:39:30.371Z,11.75
2023-09-18T03:41:57.462Z,11.76
2023-09-18T03:44:24.602Z,11.80
2023-09-18T03:46:52.638Z,11.83
2023-09-18T03:49:19.637Z,11.85
2023-09-18T03:51:47.113Z,11.88
2023-09-18T03:54:14.105Z,11.90
2023-09-18T03:56:42.017Z,11.94
2023-09-18T03:59:09.260Z,11.98
2023-09-18T04:01:36.378Z,12.02
2023-09-18T04:04:05.767Z,12.06
2023-09-18T04:06:44.669Z,12.15
2023-09-18T04:09:11.805Z,12.19
2023-09-18T04:11:39.139Z,12.25
2023-09-18T04:14:06.434Z,12.28
2023-09-18T04:16:36.663Z,12.30
2023-09-18T04:19:05.245Z,12.37
2023-09-18T04:21:32.568Z,12.42
2023-09-18T04:23:59.887Z,12.44
2023-09-18T04:26:30.961Z,12.50
2023-09-18T04:28:59.489Z,12.54
2023-09-18T04:31:29.664Z,12.58
2023-09-18T04:33:57.373Z,12.65
2023-09-18T04:36:25.992Z,12.70
2023-09-18T04:38:53.887Z,12.73
2023-09-18T04:41:21.450Z,12.78
2023-09-18T04:43:48.696Z,12.83
2023-09-18T04:46:16.091Z,12.87
2023-09-18T04:48:43.606Z,12.94
2023-09-18T04:51:10.683Z,13.00
2023-09-18T04:53:38.118Z,13.03
2023-09-18T04:56:05.494Z,13.10
2023-09-18T04:58:33.467Z,13.14
2023-09-18T05:01:01.679Z,13.21
2023-09-18T05:03:30.482Z,13.27
2023-09-18T05:05:58.526Z,13.33
2023-09-18T05:08:25.888Z,13.38
2023-09-18T05:10:53.275Z,13.44
2023-09-18T05:13:20.519Z,13.51
2023-09-18T05:15:47.609Z,13.57
2023-09-18T05:18:14.807Z,13.64
2023-09-18T05:20:42.086Z,13.68
2023-09-18T05:23:11.012Z,13.71
2023-09-18T05:25:39.883Z,13.71
2023-09-18T05:28:07.024Z,13.68
2023-09-18T05:30:36.429Z,13.71
2023-09-18T05:33:07.778Z,13.74
2023-09-18T05:35:37.975Z,13.76
2023-09-18T05:38:05.206Z,13.79
2023-09-18T05:40:33.173Z,13.83
2023-09-18T05:43:00.781Z,13.88
2023-09-18T05:45:29.447Z,13.94
2023-09-18T05:48:03.799Z,13.99
2023-09-18T05:50:33.381Z,14.04
2023-09-18T05:53:01.644Z,14.07
2023-09-18T05:55:29.086Z,14.11
2023-09-18T05:57:56.468Z,14.17
2023-09-18T06:00:24.014Z,14.24
2023-09-18T06:02:54.677Z,14.30
2023-09-18T06:05:25.932Z,14.36
2023-09-18T06:07:54.316Z,14.41
2023-09-18T06:10:22.314Z,14.45
2023-09-18T06:12:49.407Z,14.49
2023-09-18T06:15:16.638Z,14.62
2023-09-18T06:17:45.182Z,14.72
2023-09-18T06:20:17.460Z,14.80
2023-09-18T06:22:45.009Z,14.87
2023-09-18T06:25:12.330Z,14.97
2023-09-18T06:27:40.106Z,15.07
2023-09-18T06:30:08.373Z,15.18
2023-09-18T06:32:35.703Z,15.27
2023-09-18T06:35:02.905Z,15.36
2023-09-18T06:37:33.364Z,15.41
2023-09-18T06:40:00.438Z,15.43
2023-09-18T06:42:27.484Z,15.48
2023-09-18T06:44:59.671Z,15.53
2023-09-18T06:47:27.046Z,15.54
2023-09-18T06:49:54.163Z,15.52
2023-09-18T06:52:21.385Z,15.48
2023-09-18T06:54:49.069Z,15.53
2023-09-18T06:57:16.173Z,15.63
2023-09-18T06:59:43.361Z,15.73
2023-09-18T07:02:11.101Z,15.77
2023-09-18T07:04:38.281Z,15.79
2023-09-18T07:07:05.690Z,15.88
2023-09-18T07:09:34.724Z,16.05
2023-09-18T07:12:04.573Z,16.26
2023-09-18T07:14:32.209Z,16.44
2023-09-18T07:17:00.282Z,16.58
2023-09-18T07:19:27.420Z,16.59
2023-09-18T07:21:54.570Z,16.52
2023-09-18T07:24:21.867Z,16.48
2023-09-18T07:26:49.558Z,16.46
2023-09-18T07:29:17.544Z,16.42
2023-09-18T07:31:45.009Z,16.42
2023-09-18T07:34:14.300Z,16.44
2023-09-18T07:36:42.091Z,16.50
2023-09-18T07:39:09.139Z,16.54
2023-09-18T07:41:36.334Z,16.58
2023-09-18T07:44:03.423Z,16.63
2023-09-18T07:46:30.874Z,16.65
2023-09-18T07:48:58.021Z,16.66
2023-09-18T07:51:25.145Z,16.72
2023-09-18T07:53:52.345Z,16.81
2023-09-18T07:56:20.420Z,16.94
2023-09-18T07:58:48.238Z,17.13
2023-09-18T08:01:17.415Z,17.30
2023-09-18T08:03:44.797Z,17.37
2023-09-18T08:06:12.973Z,17.38
2023-09-18T08:08:40.917Z,17.31
2023-09-18T08:11:12.467Z,17.22
2023-09-18T08:13:39.648Z,17.10
2023-09-18T08:16:08.580Z,16.95
2023-09-18T08:18:36.478Z,16.83
2023-09-18T08:21:03.992Z,16.77
2023-09-18T08:23:31.431Z,16.73
2023-09-18T08:25:59.476Z,16.70
2023-09-18T08:28:26.790Z,16.67
2023-09-18T08:30:53.860Z,16.66
2023-09-18T08:33:21.695Z,16.67
2023-09-18T08:35:51.890Z,16.68
2023-09-18T08:38:21.526Z,16.75
2023-09-18T08:40:48.933Z,16.85
2023-09-18T08:43:18.693Z,17.01
2023-09-18T08:45:57.037Z,17.24
2023-09-18T08:48:25.840Z,17.43
2023-09-18T08:50:53.113Z,17.50
2023-09-18T08:53:23.112Z,17.46
2023-09-18T08:55:50.212Z,17.41
2023-09-18T08:58:20.738Z,17.38
2023-09-18T09:00:47.864Z,17.44
2023-09-18T09:03:15.856Z,17.51
2023-09-18T09:05:55.408Z,17.55
2023-09-18T09:08:47.660Z,17.53
2023-09-18T09:11:15.081Z,17.39
2023-09-18T09:13:46.712Z,17.34
2023-09-18T09:16:15.120Z,17.29
2023-09-18T09:18:50.773Z,17.19
2023-09-18T09:21:18.646Z,17.16
2023-09-18T09:23:55.349Z,17.12
2023-09-18T09:26:24.356Z,17.03
2023-09-18T09:28:52.595Z,17.00
2023-09-18T09:31:30.096Z,16.95
2023-09-18T09:33:58.933Z,16.88
2023-09-18T09:36:26.186Z,16.83
2023-09-18T09:39:00.265Z,16.78
2023-09-18T09:41:35.517Z,16.76
2023-09-18T09:44:03.223Z,16.72
2023-09-18T09:46:32.505Z,16.89
2023-09-18T09:49:00.637Z,16.96
2023-09-18T09:51:28.226Z,16.98
2023-09-18T09:53:55.473Z,17.07
2023-09-18T09:56:23.512Z,17.16
2023-09-18T09:59:05.340Z,17.26
2023-09-18T10:01:32.980Z,17.31
2023-09-18T10:04:01.769Z,17.36
2023-09-18T10:06:31.836Z,17.38
2023-09-18T10:08:59.890Z,17.39
2023-09-18T10:11:29.030Z,17.39
2023-09-18T10:14:09.077Z,17.39
2023-09-18T10:16:38.053Z,17.39
2023-09-18T10:19:39.215Z,17.42
2023-09-18T10:22:38.825Z,17.41
2023-09-18T10:25:19.836Z,17.43
2023-09-18T10:27:53.987Z,17.55
2023-09-18T10:30:24.831Z,17.69
2023-09-18T10:32:54.944Z,17.82
2023-09-18T10:35:22.497Z,17.95
2023-09-18T10:37:52.878Z,18.07
2023-09-18T10:40:26.577Z,18.17
2023-09-18T10:42:58.465Z,18.29
2023-09-18T10:45:26.135Z,18.41
2023-09-18T10:47:54.770Z,18.56
2023-09-18T10:50:26.623Z,18.71
2023-09-18T10:52:54.662Z,18.79
2023-09-18T10:55:25.293Z,18.93
2023-09-18T10:57:58.736Z,19.07
2023-09-18T11:00:28.853Z,19.27
2023-09-18T11:03:12.617Z,19.50
2023-09-18T11:05:42.323Z,19.56
2023-09-18T11:08:29.548Z,19.69
2023-09-18T11:11:05.758Z,19.74
2023-09-18T11:13:55.463Z,19.94
2023-09-18T11:16:28.536Z,20.09
2023-09-18T11:18:56.003Z,20.21
2023-09-18T11:21:28.475Z,20.24
2023-09-18T11:24:12.569Z,20.17
2023-09-18T11:26:44.169Z,20.09
2023-09-18T11:29:16.758Z,20.05
2023-09-18T11:31:44.775Z,19.96
2023-09-18T11:34:17.004Z,19.84
2023-09-18T11:36:44.440Z,19.78
2023-09-18T11:39:13.094Z,19.72
2023-09-18T11:41:41.303Z,19.66
2023-09-18T11:44:20.862Z,19.60
2023-09-18T11:46:53.420Z,19.49
2023-09-18T11:49:24.255Z,19.34
2023-09-18T11:51:52.263Z,19.19
2023-09-18T11:54:20.030Z,19.06
2023-09-18T11:56:47.483Z,18.97
2023-09-18T11:59:14.617Z,18.90
2023-09-18T12:01:41.999Z,18.86
2023-09-18T12:04:10.246Z,18.93
2023-09-18T12:06:37.647Z,19.18
2023-09-18T12:09:05.391Z,19.31
2023-09-18T12:11:35.948Z,19.25
2023-09-18T12:14:05.570Z,19.12
2023-09-18T12:16:40.471Z,19.01
2023-09-18T12:19:08.503Z,18.86
2023-09-18T12:21:43.129Z,18.71
2023-09-18T12:24:23.966Z,18.58
2023-09-18T12:26:52.873Z,18.54
2023-09-18T12:29:21.284Z,18.51
2023-09-18T12:31:49.906Z,18.48
2023-09-18T12:34:22.934Z,18.42
2023-09-18T12:36:52.391Z,18.39
2023-09-18T12:39:20.225Z,18.46
2023-09-18T12:41:48.631Z,18.54
2023-09-18T12:44:17.905Z,18.55
2023-09-18T12:46:47.821Z,18.51
2023-09-18T12:49:29.323Z,18.62
2023-09-18T12:51:58.311Z,19.16
2023-09-18T12:54:55.493Z,19.56
2023-09-18T12:57:23.079Z,19.41
2023-09-18T12:59:55.486Z,19.18
2023-09-18T13:02:29.355Z,19.00
2023-09-18T13:04:57.874Z,18.83
2023-09-18T13:07:25.631Z,18.66
2023-09-18T13:10:05.361Z,18.55
2023-09-18T13:12:41.963Z,18.48
2023-09-18T13:15:13.742Z,18.37
2023-09-18T13:17:46.584Z,18.26
2023-09-18T13:20:24.391Z,18.16
2023-09-18T13:22:53.175Z,18.02
2023-09-18T13:25:43.940Z,17.95
2023-09-18T13:28:13.201Z,17.81
2023-09-18T13:30:42.231Z,17.69
2023-09-18T13:33:11.977Z,17.58
2023-09-18T13:35:42.670Z,17.51
2023-09-18T13:38:12.227Z,17.43
2023-09-18T13:40:40.666Z,17.41
2023-09-18T13:43:09.537Z,17.48
2023-09-18T13:45:37.376Z,17.56
2023-09-18T13:48:06.153Z,17.73
2023-09-18T13:50:34.744Z,18.41
2023-09-18T13:53:05.619Z,18.88
2023-09-18T13:55:33.632Z,18.92
2023-09-18T13:58:01.443Z,18.77
2023-09-18T14:00:40.837Z,18.53
2023-09-18T14:03:09.678Z,18.26
2023-09-18T14:05:36.905Z,18.08
2023-09-18T14:08:05.328Z,17.96
2023-09-18T14:10:32.650Z,17.88
2023-09-18T14:12:59.872Z,17.73
2023-09-18T14:15:27.240Z,17.61
2023-09-18T14:17:55.600Z,17.49
2023-09-18T14:20:23.084Z,17.38
2023-09-18T14:22:51.322Z,17.29
2023-09-18T14:25:21.586Z,17.23
2023-09-18T14:27:49.929Z,17.17
2023-09-18T14:30:17.743Z,17.09
2023-09-18T14:32:45.182Z,16.96
2023-09-18T14:35:12.665Z,16.85
2023-09-18T14:37:40.017Z,16.81
2023-09-18T14:40:11.669Z,16.73
2023-09-18T14:42:39.149Z,16.62
2023-09-18T14:45:06.942Z,16.53
2023-09-18T14:47:34.160Z,16.43
2023-09-18T14:50:02.742Z,16.32
2023-09-18T14:52:33.427Z,16.20
2023-09-18T14:55:01.552Z,16.08
2023-09-18T14:57:32.241Z,16.08
2023-09-18T14:59:59.597Z,16.26
2023-09-18T15:02:31.211Z,16.26
2023-09-18T15:04:59.909Z,16.17
2023-09-18T15:07:26.879Z,16.05
2023-09-18T15:09:53.947Z,15.91
2023-09-18T15:12:21.035Z,15.75
2023-09-18T15:14:48.368Z,15.68
2023-09-18T15:17:16.240Z,15.65
2023-09-18T15:19:44.001Z,15.71
2023-09-18T15:22:11.615Z,15.64
2023-09-18T15:24:39.014Z,15.52
2023-09-18T15:27:06.954Z,15.38
2023-09-18T15:29:35.751Z,15.24
2023-09-18T15:32:06.375Z,15.12
2023-09-18T15:34:34.378Z,15.02
2023-09-18T15:37:05.436Z,14.93
2023-09-18T15:39:36.648Z,14.83
2023-09-18T15:42:04.396Z,14.71
2023-09-18T15:44:31.760Z,14.62
2023-09-18T15:46:59.008Z,14.52
2023-09-18T15:49:26.929Z,14.42
2023-09-18T15:51:54.115Z,14.33
2023-09-18T15:54:21.533Z,14.24
2023-09-18T15:56:50.466Z,14.14
2023-09-18T15:59:18.200Z,14.08
2023-09-18T16:01:47.870Z,14.02
2023-09-18T16:04:15.044Z,13.94
2023-09-18T16:06:42.268Z,13.88
2023-09-18T16:09:11.364Z,13.82
2023-09-18T16:11:38.532Z,13.76
2023-09-18T16:14:05.905Z,13.68
2023-09-18T16:16:33.280Z,13.64
2023-09-18T16:19:01.188Z,13.60
2023-09-18T16:21:28.540Z,13.54
2023-09-18T16:23:55.748Z,13.49
2023-09-18T16:26:23.024Z,13.44
2023-09-18T16:28:50.132Z,13.41
2023-09-18T16:31:17.218Z,13.36
2023-09-18T16:33:44.710Z,13.31
2023-09-18T16:36:12.059Z,13.27
2023-09-18T16:38:43.017Z,13.25
2023-09-18T16:41:11.588Z,13.21
2023-09-18T16:43:39.771Z,13.17
2023-09-18T16:46:07.446Z,13.12
2023-09-18T16:48:35.953Z,13.11
2023-09-18T16:51:05.420Z,13.07
2023-09-18T16:53:33.181Z,13.01
2023-09-18T16:56:00.499Z,12.98
2023-09-18T16:58:27.572Z,12.95
2023-09-18T17:00:55.056Z,12.88
2023-09-18T17:03:22.475Z,12.85
2023-09-18T17:05:50.565Z,12.81
2023-09-18T17:08:18.158Z,12.77
2023-09-18T17:10:45.488Z,12.75
2023-09-18T17:13:13.089Z,12.71
2023-09-18T17:15:40.208Z,12.69
2023-09-18T17:18:07.996Z,12.65
2023-09-18T17:20:35.328Z,12.52
2023-09-18T17:23:02.628Z,12.60
2023-09-18T17:25:32.413Z,12.55
2023-09-18T17:27:59.561Z,12.55
2023-09-18T17:30:28.071Z,12.52
2023-09-18T17:32:55.766Z,12.49
2023-09-18T17:35:22.777Z,12.47
2023-09-18T17:37:59.771Z,12.44
2023-09-18T17:40:27.168Z,12.41
2023-09-18T17:42:54.245Z,12.38
2023-09-18T17:45:21.496Z,12.37
2023-09-18T17:47:51.378Z,12.35
2023-09-18T17:50:18.748Z,12.33
2023-09-18T17:52:48.691Z,12.33
2023-09-18T17:55:15.759Z,12.29
2023-09-18T17:57:45.842Z,12.25
2023-09-18T18:00:17.051Z,12.24
2023-09-18T18:02:44.903Z,12.25
2023-09-18T18:05:13.023Z,12.24
2023-09-18T18:07:43.203Z,12.22
2023-09-18T18:10:10.983Z,12.22
2023-09-18T18:12:41.354Z,12.21
2023-09-18T18:15:14.254Z,12.19
2023-09-18T18:17:41.491Z,12.18
2023-09-18T18:20:10.656Z,12.19
2023-09-18T18:22:37.850Z,12.19
2023-09-18T18:25:05.317Z,12.18
2023-09-18T18:27:35.425Z,12.15
2023-09-18T18:30:06.007Z,12.16
2023-09-18T18:32:37.224Z,12.16
2023-09-18T18:35:04.967Z,12.14
2023-09-18T18:37:36.260Z,12.13
2023-09-18T18:40:08.015Z,12.12
2023-09-18T18:42:35.268Z,12.11
2023-09-18T18:45:02.798Z,12.10
2023-09-18T18:47:32.868Z,12.08
2023-09-18T18:50:02.698Z,12.03
2023-09-18T18:52:30.943Z,12.05
2023-09-18T18:54:58.017Z,12.05
2023-09-18T18:57:25.819Z,12.04
2023-09-18T18:59:52.881Z,12.03
2023-09-18T19:02:20.179Z,12.05
2023-09-18T19:04:47.237Z,12.04
2023-09-18T19:07:14.555Z,12.03
2023-09-18T19:09:42.436Z,12.02
2023-09-18T19:12:09.653Z,12.03
2023-09-18T19:14:36.855Z,12.02
2023-09-18T19:17:06.032Z,11.99
2023-09-18T19:19:33.139Z,11.96
2023-09-18T19:22:00.404Z,11.94
2023-09-18T19:24:27.667Z,11.90
2023-09-18T19:26:54.907Z,11.92
2023-09-18T19:29:25.695Z,11.91
2023-09-18T19:31:53.897Z,11.90
2023-09-18T19:34:22.407Z,11.90
2023-09-18T19:37:06.494Z,11.87
2023-09-18T19:39:35.743Z,11.85
2023-09-18T19:42:08.934Z,11.86
2023-09-18T19:44:45.235Z,11.85
2023-09-18T19:47:13.296Z,11.83
2023-09-18T19:49:40.348Z,11.81
2023-09-18T19:52:08.613Z,11.81
2023-09-18T19:54:36.027Z,11.82
2023-09-18T19:57:03.112Z,11.79
2023-09-18T19:59:30.318Z,11.79
2023-09-18T20:01:59.845Z,11.78
2023-09-18T20:04:26.997Z,11.78
2023-09-18T20:06:54.790Z,11.78
2023-09-18T20:09:24.116Z,11.78
2023-09-18T20:11:52.477Z,11.79
2023-09-18T20:14:31.134Z,11.81
2023-09-18T20:16:59.709Z,11.83
2023-09-18T20:19:26.727Z,11.87
2023-09-18T20:21:54.717Z,11.90
2023-09-18T20:24:21.934Z,11.91
2023-09-18T20:26:49.926Z,11.91
2023-09-18T20:29:18.997Z,11.93
2023-09-18T20:31:48.858Z,11.96
2023-09-18T20:34:16.253Z,11.97
2023-09-18T20:36:43.358Z,12.01
2023-09-18T20:39:20.720Z,12.02
2023-09-18T20:42:35.011Z,12.03
2023-09-18T20:45:06.214Z,11.96
2023-09-18T20:47:34.156Z,11.99
2023-09-18T20:50:02.651Z,11.98
2023-09-18T20:52:31.385Z,11.97
2023-09-18T20:54:59.238Z,11.97
2023-09-18T20:57:26.627Z,11.95
2023-09-18T20:59:55.401Z,11.94
2023-09-18T21:02:22.895Z,11.92
2023-09-18T21:04:50.334Z,11.90
2023-09-18T21:07:18.393Z,11.89
2023-09-18T21:09:45.852Z,11.86
2023-09-18T21:12:13.484Z,11.83
2023-09-18T21:14:41.811Z,11.84
2023-09-18T21:17:09.076Z,11.82
2023-09-18T21:19:36.413Z,11.81
2023-09-18T21:22:04.151Z,11.80
2023-09-18T21:24:31.390Z,11.79
2023-09-18T21:26:58.580Z,11.78
2023-09-18T21:29:28.605Z,11.77
2023-09-18T21:34:25.959Z,11.76
2023-09-18T21:36:53.204Z,11.74
2023-09-18T21:39:21.851Z,11.73
2023-09-18T21:41:48.953Z,11.69
2023-09-18T21:44:16.690Z,11.71
2023-09-18T21:46:44.785Z,11.70
2023-09-18T21:49:12.754Z,11.69
2023-09-18T21:51:40.152Z,11.68
2023-09-18T21:54:11.813Z,11.66
2023-09-18T21:56:39.296Z,11.64
2023-09-18T21:59:07.265Z,11.63
2023-09-18T22:01:36.144Z,11.63
2023-09-18T22:04:07.031Z,11.64
2023-09-18T22:06:34.793Z,11.65
2023-09-18T22:09:02.187Z,11.66
2023-09-18T22:11:31.187Z,11.67
2023-09-18T22:13:58.228Z,11.69
2023-09-18T22:16:25.431Z,11.72
2023-09-18T22:18:52.888Z,11.73
2023-09-18T22:21:21.067Z,11.74
2023-09-18T22:23:48.965Z,11.76
2023-09-18T22:26:16.987Z,11.80
2023-09-18T22:28:44.685Z,11.83
2023-09-18T22:31:20.130Z,11.90
2023-09-18T22:33:48.475Z,11.96
2023-09-18T22:36:26.709Z,12.02
2023-09-18T22:39:10.909Z,12.10
2023-09-18T22:41:40.028Z,12.17
2023-09-18T22:44:45.103Z,12.27
2023-09-18T22:47:51.550Z,12.36
2023-09-18T22:50:57.058Z,12.45
2023-09-18T22:53:26.778Z,12.48
2023-09-18T22:55:56.215Z,12.50
2023-09-18T23:00:53.926Z,12.55
2023-09-18T23:03:21.895Z,12.62
2023-09-18T23:05:49.714Z,12.69
2023-09-18T23:08:16.885Z,12.75
2023-09-18T23:10:45.135Z,12.77
2023-09-18T23:13:12.962Z,12.77
2023-09-18T23:15:40.275Z,12.77
2023-09-18T23:18:08.142Z,12.78
2023-09-18T23:20:36.951Z,12.81
2023-09-18T23:23:05.315Z,12.80
2023-09-18T23:25:35.015Z,12.84
2023-09-18T23:28:04.470Z,12.87
2023-09-18T23:30:32.110Z,12.87
2023-09-18T23:33:01.858Z,12.90
2023-09-18T23:35:34.236Z,12.91
2023-09-18T23:38:05.041Z,12.93
2023-09-18T23:40:34.236Z,12.93
2023-09-18T23:43:06.544Z,12.94
2023-09-18T23:45:39.403Z,13.02
2023-09-18T23:48:14.794Z,13.00
2023-09-18T23:50:53.130Z,12.97
2023-09-18T23:53:22.107Z,12.92
2023-09-18T23:55:53.722Z,12.87
2023-09-18T23:58:23.769Z,12.81
